Decoded Metar for KFFC (PEACHTREE CITY in GA, USA) (IATA:FFC) | Meteo·Mobile Aviation Weather
aviador You're here:

KFFC Decoded Metar

PEACHTREE CITY in GA, USA
Report Time2018-11-15 11:53:00
UTC Time2018-11-15 12:12:14
Flight Rules vfr VFR
WindCalm
Visibility9999 m
Phenomena:N/A
Clouds:N/A
CeilingNone
Temp06°C (ISA -7)
Dew Point06°C (100% RH)
AAT5.1°C
QNH1020 hPa
Density Alt-125 ft
Elevation860 ft
Report Wrong Elevation
Raw Report
METAR KFFC 151153Z AUTO 00000KT 10SM 06/06 A3011 RMK AO2 RAE32 SLPNO
P0001 6//// 7//// T00610056 55002=

Extra information for KFFC:More info

Metar Taf Metar & Taf Last 4 Metars F.Rules Stats Wind Profile Meteogram Temp Stats Airport Information Weather charts Add Link Nearby VenuesMetar ALERT Operation Metar Decoded Social comments

AIRNAV info for KFFC